CheckWX is a tool to help pilots better visualize weather data.  It is not intended as a substitute for an official pre-flight weather briefing.

21:23:39 UTC

LEMG METAR
Málaga Airport
Málaga, Spain
Current

24 mins ago

LEMG 222100Z 29004KT 9999 FEW030 BKN065 16/09 Q1011 NOSIG
Observed
Oct-22 @ 21:00 UTC
Wind
  • 290° at 4 KTS
Visibility
10,000+ meters
Flight Rules
VFR
Cloud Levels
  • Few at 3,000' AGL
  • Broken at 6,500' AGL
Temperature
16°C / 61°F
Dewpoint
C / 48°F
Humidity
63%
Altimeter
29.85" Hg
Pressure
1010.92 hPa
Previous

54 mins ago

LEMG 222030Z 33004KT 300V020 9999 FEW030 BKN063 17/08 Q1010 NOSIG
Observed
Oct-22 @ 20:30 UTC
Wind
  • 330° at 4 KTS
Visibility
10,000+ meters
Flight Rules
VFR
Cloud Levels
  • Few at 3,000' AGL
  • Broken at 6,300' AGL
Temperature
17°C / 63°F
Dewpoint
C / 46°F
Humidity
56%
Altimeter
29.82" Hg
Pressure
1009.92 hPa
Previous

1 hour ago

LEMG 222000Z 28003KT 9999 FEW030 SCT085 17/09 Q1010 NOSIG
Observed
Oct-22 @ 20:00 UTC
Wind
  • 280° at 3 KTS
Visibility
10,000+ meters
Flight Rules
VFR
Cloud Levels
  • Few at 3,000' AGL
  • Scattered at 8,500' AGL
Temperature
17°C / 63°F
Dewpoint
C / 48°F
Humidity
59%
Altimeter
29.82" Hg
Pressure
1009.92 hPa